sensor_id;sensor_type;location;lat;lon;timestamp;pressure;altitude;pressure_sealevel;temperature;humidity
71457;BME280;59263;48.160;11.752;2023-05-25T00:00:12;96118.84;;;11.79;100.00
71457;BME280;59263;48.160;11.752;2023-05-25T00:02:38;96114.88;;;11.75;100.00
71457;BME280;59263;48.160;11.752;2023-05-25T00:05:04;96115.47;;;11.69;100.00
71457;BME280;59263;48.160;11.752;2023-05-25T00:07:30;96124.88;;;11.70;100.00
71457;BME280;59263;48.160;11.752;2023-05-25T00:09:55;96137.19;;;11.68;100.00
71457;BME280;59263;48.160;11.752;2023-05-25T00:12:21;96135.78;;;11.64;100.00
71457;BME280;59263;48.160;11.752;2023-05-25T00:14:46;96132.53;;;11.62;100.00
71457;BME280;59263;48.160;11.752;2023-05-25T00:17:13;96126.69;;;11.60;100.00
71457;BME280;59263;48.160;11.752;2023-05-25T00:19:39;96144.25;;;11.66;100.00
71457;BME280;59263;48.160;11.752;2023-05-25T00:22:08;96141.66;;;11.66;100.00
71457;BME280;59263;48.160;11.752;2023-05-25T00:24:34;96135.78;;;11.64;100.00
71457;BME280;59263;48.160;11.752;2023-05-25T00:26:59;96114.31;;;11.54;100.00
71457;BME280;59263;48.160;11.752;2023-05-25T00:29:25;96132.94;;;11.67;100.00
71457;BME280;59263;48.160;11.752;2023-05-25T00:31:52;96126.94;;;11.67;100.00
71457;BME280;59263;48.160;11.752;2023-05-25T00:34:17;96130.06;;;11.70;100.00
71457;BME280;59263;48.160;11.752;2023-05-25T00:36:42;96133.63;;;11.69;100.00
71457;BME280;59263;48.160;11.752;2023-05-25T00:39:08;96132.81;;;11.69;100.00
71457;BME280;59263;48.160;11.752;2023-05-25T00:41:35;96132.81;;;11.69;100.00
71457;BME280;59263;48.160;11.752;2023-05-25T00:44:06;96126.41;;;11.63;100.00
71457;BME280;59263;48.160;11.752;2023-05-25T00:46:33;96134.88;;;11.65;100.00
71457;BME280;59263;48.160;11.752;2023-05-25T00:48:58;96126.81;;;11.68;100.00
71457;BME280;59263;48.160;11.752;2023-05-25T00:51:24;96124.22;;;11.68;100.00
71457;BME280;59263;48.160;11.752;2023-05-25T00:53:50;96110.19;;;11.61;100.00
71457;BME280;59263;48.160;11.752;2023-05-25T00:56:25;96118.91;;;11.60;100.00
71457;BME280;59263;48.160;11.752;2023-05-25T00:58:54;96119.44;;;11.63;100.00
71457;BME280;59263;48.160;11.752;2023-05-25T01:01:22;96108.31;;;11.53;100.00
71457;BME280;59263;48.160;11.752;2023-05-25T01:03:50;96121.50;;;11.60;100.00
71457;BME280;59263;48.160;11.752;2023-05-25T01:06:19;96106.25;;;11.57;100.00
71457;BME280;59263;48.160;11.752;2023-05-25T01:08:49;96111.44;;;11.57;100.00
71457;BME280;59263;48.160;11.752;2023-05-25T01:11:19;96112.38;;;11.56;100.00
71457;BME280;59263;48.160;11.752;2023-05-25T01:13:47;96107.19;;;11.56;100.00
71457;BME280;59263;48.160;11.752;2023-05-25T01:16:14;96113.72;;;11.60;100.00
71457;BME280;59263;48.160;11.752;2023-05-25T01:18:40;96126.13;;;11.66;100.00
71457;BME280;59263;48.160;11.752;2023-05-25T01:21:11;96121.63;;;11.68;100.00
71457;BME280;59263;48.160;11.752;2023-05-25T01:24:09;96121.91;;;11.65;100.00
71457;BME280;59263;48.160;11.752;2023-05-25T01:26:36;96123.25;;;11.69;100.00
71457;BME280;59263;48.160;11.752;2023-05-25T01:29:03;96122.72;;;11.66;100.00
71457;BME280;59263;48.160;11.752;2023-05-25T01:31:32;96118.34;;;11.66;100.00
71457;BME280;59263;48.160;11.752;2023-05-25T01:33:59;96122.72;;;11.66;100.00
71457;BME280;59263;48.160;11.752;2023-05-25T01:36:25;96124.34;;;11.67;100.00
71457;BME280;59263;48.160;11.752;2023-05-25T01:38:51;96133.63;;;11.69;100.00
71457;BME280;59263;48.160;11.752;2023-05-25T01:41:16;96120.94;;;11.66;100.00
71457;BME280;59263;48.160;11.752;2023-05-25T01:43:41;96124.22;;;11.68;100.00
71457;BME280;59263;48.160;11.752;2023-05-25T01:46:35;96137.41;;;11.75;100.00
71457;BME280;59263;48.160;11.752;2023-05-25T01:52:07;96143.13;;;11.78;100.00
71457;BME280;59263;48.160;11.752;2023-05-25T01:54:38;96141.06;;;11.82;100.00
71457;BME280;59263;48.160;11.752;2023-05-25T01:57:12;96131.13;;;11.77;100.00
71457;BME280;59263;48.160;11.752;2023-05-25T01:59:41;96136.44;;;11.85;100.00
71457;BME280;59263;48.160;11.752;2023-05-25T02:02:08;96132.22;;;11.84;100.00
71457;BME280;59263;48.160;11.752;2023-05-25T02:04:34;96150.34;;;11.94;100.00
71457;BME280;59263;48.160;11.752;2023-05-25T02:06:59;96160.41;;;11.97;100.00
71457;BME280;59263;48.160;11.752;2023-05-25T02:09:25;96157.00;;;11.97;100.00
71457;BME280;59263;48.160;11.752;2023-05-25T02:11:50;96146.91;;;11.94;100.00
71457;BME280;59263;48.160;11.752;2023-05-25T02:14:16;96157.69;;;11.99;100.00
71457;BME280;59263;48.160;11.752;2023-05-25T02:16:41;96145.53;;;11.99;100.00
71457;BME280;59263;48.160;11.752;2023-05-25T02:19:07;96144.44;;;12.02;100.00
71457;BME280;59263;48.160;11.752;2023-05-25T02:21:32;96144.72;;;11.99;100.00
71457;BME280;59263;48.160;11.752;2023-05-25T02:23:57;96140.78;;;11.95;100.00
71457;BME280;59263;48.160;11.752;2023-05-25T02:26:23;96144.72;;;11.99;100.00
71457;BME280;59263;48.160;11.752;2023-05-25T02:28:50;96143.31;;;12.04;100.00
71457;BME280;59263;48.160;11.752;2023-05-25T02:31:15;96120.97;;;11.94;100.00
71457;BME280;59263;48.160;11.752;2023-05-25T02:33:41;96131.59;;;12.00;100.00
71457;BME280;59263;48.160;11.752;2023-05-25T02:36:06;96131.47;;;12.02;100.00
71457;BME280;59263;48.160;11.752;2023-05-25T02:38:32;96140.19;;;12.01;100.00
71457;BME280;59263;48.160;11.752;2023-05-25T02:40:57;96146.44;;;12.08;100.00
71457;BME280;59263;48.160;11.752;2023-05-25T02:43:22;96132.19;;;11.94;100.00
71457;BME280;59263;48.160;11.752;2023-05-25T02:45:48;96139.97;;;11.94;100.00
71457;BME280;59263;48.160;11.752;2023-05-25T02:48:13;96154.81;;;12.02;100.00
71457;BME280;59263;48.160;11.752;2023-05-25T02:50:38;96148.50;;;12.04;100.00
71457;BME280;59263;48.160;11.752;2023-05-25T02:53:04;96135.44;;;11.96;100.00
71457;BME280;59263;48.160;11.752;2023-05-25T02:55:30;96141.59;;;11.95;100.00
71457;BME280;59263;48.160;11.752;2023-05-25T02:57:55;96156.28;;;12.04;100.00
71457;BME280;59263;48.160;11.752;2023-05-25T03:00:22;96152.22;;;12.02;100.00
71457;BME280;59263;48.160;11.752;2023-05-25T03:02:47;96146.91;;;11.94;100.00
71457;BME280;59263;48.160;11.752;2023-05-25T03:05:14;96156.44;;;12.03;100.00
71457;BME280;59263;48.160;11.752;2023-05-25T03:07:40;96162.81;;;12.08;100.00
71457;BME280;59263;48.160;11.752;2023-05-25T03:10:06;96152.44;;;12.08;100.00
71457;BME280;59263;48.160;11.752;2023-05-25T03:12:31;96153.66;;;12.14;100.00
71457;BME280;59263;48.160;11.752;2023-05-25T03:14:57;96146.03;;;12.13;100.00
71457;BME280;59263;48.160;11.752;2023-05-25T03:17:22;96146.06;;;12.03;100.00
71457;BME280;59263;48.160;11.752;2023-05-25T03:19:47;96142.50;;;12.04;100.00
71457;BME280;59263;48.160;11.752;2023-05-25T03:22:13;96128.03;;;12.01;100.00
71457;BME280;59263;48.160;11.752;2023-05-25T03:24:38;96144.81;;;12.07;100.00
71457;BME280;59263;48.160;11.752;2023-05-25T03:27:05;96144.97;;;12.05;100.00
71457;BME280;59263;48.160;11.752;2023-05-25T03:29:31;96141.16;;;12.00;100.00
71457;BME280;59263;48.160;11.752;2023-05-25T03:31:56;96146.34;;;12.00;100.00
71457;BME280;59263;48.160;11.752;2023-05-25T03:34:22;96149.19;;;12.06;100.00
71457;BME280;59263;48.160;11.752;2023-05-25T03:36:48;96152.44;;;12.08;100.00
71457;BME280;59263;48.160;11.752;2023-05-25T03:39:14;96148.75;;;12.11;100.00
71457;BME280;59263;48.160;11.752;2023-05-25T03:41:39;96147.78;;;12.12;100.00
71457;BME280;59263;48.160;11.752;2023-05-25T03:44:05;96149.44;;;12.13;100.00
71457;BME280;59263;48.160;11.752;2023-05-25T03:46:30;96130.22;;;12.06;100.00
71457;BME280;59263;48.160;11.752;2023-05-25T03:48:55;96116.91;;;11.91;100.00
71457;BME280;59263;48.160;11.752;2023-05-25T03:51:21;96116.66;;;11.84;100.00
71457;BME280;59263;48.160;11.752;2023-05-25T03:53:46;96117.03;;;11.90;100.00
71457;BME280;59263;48.160;11.752;2023-05-25T03:56:12;96135.41;;;12.06;100.00
71457;BME280;59263;48.160;11.752;2023-05-25T03:58:37;96143.56;;;12.11;100.00
71457;BME280;59263;48.160;11.752;2023-05-25T04:01:02;96150.69;;;12.09;100.00
71457;BME280;59263;48.160;11.752;2023-05-25T04:03:28;96118.97;;;11.88;100.00
71457;BME280;59263;48.160;11.752;2023-05-25T04:05:53;96128.38;;;11.89;100.00
71457;BME280;59263;48.160;11.752;2023-05-25T04:08:18;96119.13;;;11.76;100.00
71457;BME280;59263;48.160;11.752;2023-05-25T04:10:44;96140.25;;;11.81;100.00
71457;BME280;59263;48.160;11.752;2023-05-25T04:13:10;96155.09;;;11.99;100.00
71457;BME280;59263;48.160;11.752;2023-05-25T04:15:36;96155.47;;;12.04;100.00
71457;BME280;59263;48.160;11.752;2023-05-25T04:18:01;96172.47;;;12.16;100.00
71457;BME280;59263;48.160;11.752;2023-05-25T04:20:27;96161.06;;;12.09;100.00
71457;BME280;59263;48.160;11.752;2023-05-25T04:22:53;96162.97;;;12.07;100.00
71457;BME280;59263;48.160;11.752;2023-05-25T04:25:18;96164.56;;;12.18;100.00
71457;BME280;59263;48.160;11.752;2023-05-25T04:27:44;96133.09;;;12.03;100.00
71457;BME280;59263;48.160;11.752;2023-05-25T04:30:11;96137.72;;;12.09;100.00
71457;BME280;59263;48.160;11.752;2023-05-25T04:32:36;96121.66;;;11.96;100.00
71457;BME280;59263;48.160;11.752;2023-05-25T04:35:02;96164.00;;;12.24;100.00
71457;BME280;59263;48.160;11.752;2023-05-25T04:37:30;96134.44;;;12.07;100.00
71457;BME280;59263;48.160;11.752;2023-05-25T04:39:56;96153.91;;;12.21;100.00
71457;BME280;59263;48.160;11.752;2023-05-25T04:42:22;96168.44;;;12.31;100.00
71457;BME280;59263;48.160;11.752;2023-05-25T04:44:48;96170.72;;;12.34;100.00
71457;BME280;59263;48.160;11.752;2023-05-25T04:47:15;96155.09;;;12.26;100.00
71457;BME280;59263;48.160;11.752;2023-05-25T04:49:41;96171.69;;;12.33;100.00
71457;BME280;59263;48.160;11.752;2023-05-25T04:52:06;96147.91;;;12.20;100.00
71457;BME280;59263;48.160;11.752;2023-05-25T04:54:31;96171.06;;;12.31;100.00
71457;BME280;59263;48.160;11.752;2023-05-25T04:56:57;96174.31;;;12.33;100.00
71457;BME280;59263;48.160;11.752;2023-05-25T04:59:22;96172.69;;;12.32;100.00
71457;BME280;59263;48.160;11.752;2023-05-25T05:01:47;96190.56;;;12.35;100.00
71457;BME280;59263;48.160;11.752;2023-05-25T05:04:13;96191.81;;;12.31;100.00
71457;BME280;59263;48.160;11.752;2023-05-25T05:06:40;96186.91;;;12.28;100.00
71457;BME280;59263;48.160;11.752;2023-05-25T05:09:05;96191.50;;;12.34;100.00
71457;BME280;59263;48.160;11.752;2023-05-25T05:11:31;96178.72;;;12.23;100.00
71457;BME280;59263;48.160;11.752;2023-05-25T05:13:56;96193.41;;;12.42;100.00
71457;BME280;59263;48.160;11.752;2023-05-25T05:16:24;96181.81;;;12.37;100.00
71457;BME280;59263;48.160;11.752;2023-05-25T05:18:49;96187.38;;;12.42;100.00
71457;BME280;59263;48.160;11.752;2023-05-25T05:21:14;96191.63;;;12.43;100.00
71457;BME280;59263;48.160;11.752;2023-05-25T05:23:41;96189.00;;;12.43;100.00
71457;BME280;59263;48.160;11.752;2023-05-25T05:26:07;96179.56;;;12.42;100.00
71457;BME280;59263;48.160;11.752;2023-05-25T05:28:35;96173.72;;;12.40;100.00
71457;BME280;59263;48.160;11.752;2023-05-25T05:31:00;96177.38;;;12.47;100.00
71457;BME280;59263;48.160;11.752;2023-05-25T05:33:26;96189.75;;;12.53;100.00
71457;BME280;59263;48.160;11.752;2023-05-25T05:35:51;96187.16;;;12.53;100.00
71457;BME280;59263;48.160;11.752;2023-05-25T05:38:17;96199.84;;;12.56;100.00
71457;BME280;59263;48.160;11.752;2023-05-25T05:40:43;96196.16;;;12.58;100.00
71457;BME280;59263;48.160;11.752;2023-05-25T05:43:12;96196.00;;;12.60;100.00
71457;BME280;59263;48.160;11.752;2023-05-25T05:45:38;96192.47;;;12.61;100.00
71457;BME280;59263;48.160;11.752;2023-05-25T05:48:04;96196.53;;;12.64;100.00
71457;BME280;59263;48.160;11.752;2023-05-25T05:50:34;96196.31;;;12.57;100.00
71457;BME280;59263;48.160;11.752;2023-05-25T05:52:59;96174.19;;;12.53;100.00
71457;BME280;59263;48.160;11.752;2023-05-25T05:55:24;96185.72;;;12.68;100.00
71457;BME280;59263;48.160;11.752;2023-05-25T05:57:50;96206.13;;;12.81;100.00
71457;BME280;59263;48.160;11.752;2023-05-25T06:00:16;96189.34;;;12.75;100.00
71457;BME280;59263;48.160;11.752;2023-05-25T06:02:42;96210.59;;;12.89;100.00
71457;BME280;59263;48.160;11.752;2023-05-25T06:05:07;96193.22;;;12.89;100.00
71457;BME280;59263;48.160;11.752;2023-05-25T06:07:33;96195.28;;;12.86;100.00
71457;BME280;59263;48.160;11.752;2023-05-25T06:10:00;96206.44;;;12.96;100.00
71457;BME280;59263;48.160;11.752;2023-05-25T06:12:25;96195.97;;;12.88;100.00
71457;BME280;59263;48.160;11.752;2023-05-25T06:14:50;96214.06;;;12.97;100.00
71457;BME280;59263;48.160;11.752;2023-05-25T06:17:16;96220.91;;;12.98;100.00
71457;BME280;59263;48.160;11.752;2023-05-25T06:19:41;96223.34;;;13.00;100.00
71457;BME280;59263;48.160;11.752;2023-05-25T06:22:06;96225.94;;;13.00;100.00
71457;BME280;59263;48.160;11.752;2023-05-25T06:24:32;96211.91;;;12.93;100.00
71457;BME280;59263;48.160;11.752;2023-05-25T06:26:57;96225.78;;;13.01;100.00
71457;BME280;59263;48.160;11.752;2023-05-25T06:29:22;96225.94;;;13.00;100.00
71457;BME280;59263;48.160;11.752;2023-05-25T06:31:48;96229.66;;;12.97;100.00
71457;BME280;59263;48.160;11.752;2023-05-25T06:34:13;96229.81;;;12.96;100.00
71457;BME280;59263;48.160;11.752;2023-05-25T06:36:38;96215.19;;;12.95;100.00
71457;BME280;59263;48.160;11.752;2023-05-25T06:39:04;96225.78;;;13.01;100.00
71457;BME280;59263;48.160;11.752;2023-05-25T06:41:29;96227.72;;;12.99;100.00
71457;BME280;59263;48.160;11.752;2023-05-25T06:43:54;96234.78;;;13.07;100.00
71457;BME280;59263;48.160;11.752;2023-05-25T06:46:20;96244.38;;;13.06;100.00
71457;BME280;59263;48.160;11.752;2023-05-25T06:48:46;96238.19;;;13.07;100.00
71457;BME280;59263;48.160;11.752;2023-05-25T06:51:11;96234.34;;;13.12;100.00
71457;BME280;59263;48.160;11.752;2023-05-25T06:53:37;96232.88;;;13.09;100.00
71457;BME280;59263;48.160;11.752;2023-05-25T06:56:03;96249.19;;;13.19;100.00
71457;BME280;59263;48.160;11.752;2023-05-25T06:58:29;96243.16;;;13.19;100.00
71457;BME280;59263;48.160;11.752;2023-05-25T07:00:54;96251.66;;;13.21;100.00
71457;BME280;59263;48.160;11.752;2023-05-25T07:03:20;96251.13;;;13.17;100.00
71457;BME280;59263;48.160;11.752;2023-05-25T07:05:46;96256.31;;;13.17;100.00
71457;BME280;59263;48.160;11.752;2023-05-25T07:08:11;96255.63;;;13.25;100.00
71457;BME280;59263;48.160;11.752;2023-05-25T07:10:36;96250.16;;;13.18;100.00
71457;BME280;59263;48.160;11.752;2023-05-25T07:13:01;96254.25;;;13.21;100.00
71457;BME280;59263;48.160;11.752;2023-05-25T07:15:27;96257.41;;;13.24;100.00
71457;BME280;59263;48.160;11.752;2023-05-25T07:17:52;96249.88;;;13.21;100.00
71457;BME280;59263;48.160;11.752;2023-05-25T07:20:21;96249.59;;;13.24;100.00
71457;BME280;59263;48.160;11.752;2023-05-25T07:22:47;96255.44;;;13.26;100.00
71457;BME280;59263;48.160;11.752;2023-05-25T07:25:13;96250.13;;;13.28;100.00
71457;BME280;59263;48.160;11.752;2023-05-25T07:27:38;96228.66;;;13.26;100.00
71457;BME280;59263;48.160;11.752;2023-05-25T07:30:04;96241.63;;;13.44;100.00
71457;BME280;59263;48.160;11.752;2023-05-25T07:32:30;96238.97;;;13.36;100.00
71457;BME280;59263;48.160;11.752;2023-05-25T07:34:55;96233.78;;;13.36;100.00
71457;BME280;59263;48.160;11.752;2023-05-25T07:37:21;96238.88;;;13.45;100.00
71457;BME280;59263;48.160;11.752;2023-05-25T07:39:46;96244.81;;;13.55;100.00
71457;BME280;59263;48.160;11.752;2023-05-25T07:42:11;96253.06;;;13.51;100.00
71457;BME280;59263;48.160;11.752;2023-05-25T07:45:24;96264.81;;;13.55;100.00
71457;BME280;59263;48.160;11.752;2023-05-25T07:47:49;96269.09;;;13.64;100.00
71457;BME280;59263;48.160;11.752;2023-05-25T07:50:14;96260.56;;;13.54;100.00
71457;BME280;59263;48.160;11.752;2023-05-25T07:52:40;96247.19;;;13.49;100.00
71457;BME280;59263;48.160;11.752;2023-05-25T07:55:06;96268.06;;;13.57;100.00
71457;BME280;59263;48.160;11.752;2023-05-25T07:57:31;96251.59;;;13.48;100.00
71457;BME280;59263;48.160;11.752;2023-05-25T07:59:57;96257.66;;;13.57;100.00
71457;BME280;59263;48.160;11.752;2023-05-25T08:02:22;96268.38;;;13.54;100.00
71457;BME280;59263;48.160;11.752;2023-05-25T08:04:47;96275.19;;;13.55;100.00
71457;BME280;59263;48.160;11.752;2023-05-25T08:07:13;96266.72;;;13.53;100.00
71457;BME280;59263;48.160;11.752;2023-05-25T08:09:38;96280.84;;;13.50;100.00
71457;BME280;59263;48.160;11.752;2023-05-25T08:12:03;96288.78;;;13.49;100.00
71457;BME280;59263;48.160;11.752;2023-05-25T08:14:29;96281.28;;;13.46;100.00
71457;BME280;59263;48.160;11.752;2023-05-25T08:16:54;96294.44;;;13.62;100.00
71457;BME280;59263;48.160;11.752;2023-05-25T08:19:19;96275.56;;;13.60;100.00
71457;BME280;59263;48.160;11.752;2023-05-25T08:21:45;96284.09;;;13.70;100.00
71457;BME280;59263;48.160;11.752;2023-05-25T08:24:10;96281.66;;;13.69;100.00
71457;BME280;59263;48.160;11.752;2023-05-25T08:26:35;96289.66;;;13.75;100.00
71457;BME280;59263;48.160;11.752;2023-05-25T08:29:04;96301.72;;;13.76;100.00
71457;BME280;59263;48.160;11.752;2023-05-25T08:31:30;96300.06;;;13.75;100.00
71457;BME280;59263;48.160;11.752;2023-05-25T08:33:57;96291.91;;;13.70;100.00
71457;BME280;59263;48.160;11.752;2023-05-25T08:36:23;96292.94;;;13.77;100.00
71457;BME280;59263;48.160;11.752;2023-05-25T08:38:48;96288.09;;;13.83;100.00
71457;BME280;59263;48.160;11.752;2023-05-25T08:41:14;96287.78;;;13.86;100.00
71457;BME280;59263;48.160;11.752;2023-05-25T08:43:40;96279.53;;;13.90;100.00
71457;BME280;59263;48.160;11.752;2023-05-25T08:46:06;96291.47;;;14.01;100.00
71457;BME280;59263;48.160;11.752;2023-05-25T08:48:33;96303.38;;;14.03;100.00
71457;BME280;59263;48.160;11.752;2023-05-25T08:51:13;96291.16;;;14.04;100.00
71457;BME280;59263;48.160;11.752;2023-05-25T08:53:42;96305.38;;;14.10;100.00
71457;BME280;59263;48.160;11.752;2023-05-25T08:56:21;96296.66;;;14.01;100.00
71457;BME280;59263;48.160;11.752;2023-05-25T08:59:03;96294.75;;;14.03;100.00
71457;BME280;59263;48.160;11.752;2023-05-25T09:01:35;96309.91;;;14.08;100.00
71457;BME280;59263;48.160;11.752;2023-05-25T09:04:02;96311.38;;;14.10;100.00
71457;BME280;59263;48.160;11.752;2023-05-25T09:06:28;96316.88;;;14.07;100.00
71457;BME280;59263;48.160;11.752;2023-05-25T09:08:54;96324.09;;;14.13;100.00
71457;BME280;59263;48.160;11.752;2023-05-25T09:11:20;96319.84;;;14.12;100.00
71457;BME280;59263;48.160;11.752;2023-05-25T09:13:46;96326.38;;;14.16;100.00
71457;BME280;59263;48.160;11.752;2023-05-25T09:16:12;96316.59;;;14.10;100.00
71457;BME280;59263;48.160;11.752;2023-05-25T09:18:37;96322.81;;;14.17;100.00
71457;BME280;59263;48.160;11.752;2023-05-25T09:21:02;96322.00;;;14.17;100.00
71457;BME280;59263;48.160;11.752;2023-05-25T09:23:29;96311.09;;;14.13;100.00
71457;BME280;59263;48.160;11.752;2023-05-25T09:25:55;96322.88;;;14.25;100.00
71457;BME280;59263;48.160;11.752;2023-05-25T09:28:21;96333.31;;;14.34;100.00
71457;BME280;59263;48.160;11.752;2023-05-25T09:30:46;96331.13;;;14.47;100.00
71457;BME280;59263;48.160;11.752;2023-05-25T09:33:12;96328.53;;;14.47;100.00
71457;BME280;59263;48.160;11.752;2023-05-25T09:35:39;96304.47;;;14.27;100.00
71457;BME280;59263;48.160;11.752;2023-05-25T09:38:05;96316.28;;;14.39;100.00
71457;BME280;59263;48.160;11.752;2023-05-25T09:40:32;96326.56;;;14.49;100.00
71457;BME280;59263;48.160;11.752;2023-05-25T09:42:58;96316.16;;;14.49;100.00
71457;BME280;59263;48.160;11.752;2023-05-25T09:45:25;96317.69;;;14.51;100.00
71457;BME280;59263;48.160;11.752;2023-05-25T09:47:57;96317.59;;;14.43;100.00
71457;BME280;59263;48.160;11.752;2023-05-25T09:50:22;96336.75;;;14.60;100.00
71457;BME280;59263;48.160;11.752;2023-05-25T09:52:48;96330.22;;;14.56;100.00
71457;BME280;59263;48.160;11.752;2023-05-25T09:55:14;96328.63;;;14.63;100.00
71457;BME280;59263;48.160;11.752;2023-05-25T09:57:40;96339.75;;;14.73;100.00
71457;BME280;59263;48.160;11.752;2023-05-25T10:00:06;96336.25;;;14.91;100.00
71457;BME280;59263;48.160;11.752;2023-05-25T10:02:32;96313.44;;;14.85;100.00
71457;BME280;59263;48.160;11.752;2023-05-25T10:04:58;96328.81;;;15.04;100.00
71457;BME280;59263;48.160;11.752;2023-05-25T10:07:24;96333.53;;;15.09;100.00
71457;BME280;59263;48.160;11.752;2023-05-25T10:09:51;96324.75;;;15.10;100.00
71457;BME280;59263;48.160;11.752;2023-05-25T10:12:19;96326.56;;;15.09;100.00
71457;BME280;59263;48.160;11.752;2023-05-25T10:14:49;96311.22;;;15.06;100.00
71457;BME280;59263;48.160;11.752;2023-05-25T10:17:22;96329.19;;;15.25;100.00
71457;BME280;59263;48.160;11.752;2023-05-25T10:19:57;96324.31;;;15.31;100.00
71457;BME280;59263;48.160;11.752;2023-05-25T10:25:09;96327.28;;;15.36;100.00
71457;BME280;59263;48.160;11.752;2023-05-25T10:27:43;96335.75;;;15.46;100.00
71457;BME280;59263;48.160;11.752;2023-05-25T10:30:13;96331.88;;;15.50;100.00
71457;BME280;59263;48.160;11.752;2023-05-25T10:32:39;96308.34;;;15.42;100.00
71457;BME280;59263;48.160;11.752;2023-05-25T10:35:05;96314.25;;;15.52;100.00
71457;BME280;59263;48.160;11.752;2023-05-25T10:37:32;96328.44;;;15.58;100.00
71457;BME280;59263;48.160;11.752;2023-05-25T10:39:58;96331.19;;;15.56;100.00
71457;BME280;59263;48.160;11.752;2023-05-25T10:42:25;96324.69;;;15.60;100.00
71457;BME280;59263;48.160;11.752;2023-05-25T10:44:52;96313.28;;;15.61;100.00
71457;BME280;59263;48.160;11.752;2023-05-25T10:47:18;96315.25;;;15.67;100.00
71457;BME280;59263;48.160;11.752;2023-05-25T10:49:54;96324.38;;;15.71;100.00
71457;BME280;59263;48.160;11.752;2023-05-25T10:52:21;96326.69;;;15.83;100.00
71457;BME280;59263;48.160;11.752;2023-05-25T10:54:54;96327.16;;;15.86;100.00
71457;BME280;59263;48.160;11.752;2023-05-25T10:57:21;96324.41;;;15.88;100.00
71457;BME280;59263;48.160;11.752;2023-05-25T10:59:52;96311.69;;;15.77;100.00
71457;BME280;59263;48.160;11.752;2023-05-25T11:02:20;96323.44;;;15.81;100.00
71457;BME280;59263;48.160;11.752;2023-05-25T11:04:47;96324.09;;;15.91;100.00
71457;BME280;59263;48.160;11.752;2023-05-25T11:07:14;96308.41;;;16.07;100.00
71457;BME280;59263;48.160;11.752;2023-05-25T11:09:41;96295.84;;;16.11;100.00
71457;BME280;59263;48.160;11.752;2023-05-25T11:12:28;96276.75;;;16.10;100.00
71457;BME280;59263;48.160;11.752;2023-05-25T11:15:13;96318.44;;;16.51;100.00
71457;BME280;59263;48.160;11.752;2023-05-25T11:17:58;96313.22;;;16.51;100.00
71457;BME280;59263;48.160;11.752;2023-05-25T11:20:27;96311.25;;;16.61;100.00
71457;BME280;59263;48.160;11.752;2023-05-25T11:22:53;96304.69;;;16.57;100.00
71457;BME280;59263;48.160;11.752;2023-05-25T11:28:02;96305.31;;;16.67;100.00
71457;BME280;59263;48.160;11.752;2023-05-25T11:30:28;96300.56;;;16.71;100.00
71457;BME280;59263;48.160;11.752;2023-05-25T11:32:54;96312.19;;;16.77;100.00
71457;BME280;59263;48.160;11.752;2023-05-25T11:35:24;96306.44;;;16.81;100.00
71457;BME280;59263;48.160;11.752;2023-05-25T11:37:50;96283.44;;;16.77;100.00
71457;BME280;59263;48.160;11.752;2023-05-25T11:40:21;96290.22;;;16.94;100.00
71457;BME280;59263;48.160;11.752;2023-05-25T11:42:47;96283.97;;;17.03;100.00
71457;BME280;59263;48.160;11.752;2023-05-25T11:45:13;96262.72;;;16.98;100.00
71457;BME280;59263;48.160;11.752;2023-05-25T11:47:39;96279.69;;;17.10;100.00
71457;BME280;59263;48.160;11.752;2023-05-25T11:50:04;96287.41;;;17.27;100.00
71457;BME280;59263;48.160;11.752;2023-05-25T11:52:30;96280.03;;;17.30;100.00
71457;BME280;59263;48.160;11.752;2023-05-25T11:54:56;96245.63;;;17.18;100.00
71457;BME280;59263;48.160;11.752;2023-05-25T11:57:23;96283.06;;;17.42;100.00
71457;BME280;59263;48.160;11.752;2023-05-25T11:59:53;96285.66;;;17.50;100.00
71457;BME280;59263;48.160;11.752;2023-05-25T12:02:20;96278.41;;;17.52;100.00
71457;BME280;59263;48.160;11.752;2023-05-25T12:04:56;96276.03;;;17.65;100.00
71457;BME280;59263;48.160;11.752;2023-05-25T12:07:23;96266.91;;;17.61;100.00
71457;BME280;59263;48.160;11.752;2023-05-25T12:09:50;96283.53;;;17.69;100.00
71457;BME280;59263;48.160;11.752;2023-05-25T12:12:15;96270.59;;;17.75;100.00
71457;BME280;59263;48.160;11.752;2023-05-25T12:14:50;96276.75;;;17.82;100.00
71457;BME280;59263;48.160;11.752;2023-05-25T12:17:16;96230.78;;;17.57;100.00
71457;BME280;59263;48.160;11.752;2023-05-25T12:19:42;96271.88;;;17.94;100.00
71457;BME280;59263;48.160;11.752;2023-05-25T12:22:08;96249.75;;;17.82;100.00
71457;BME280;59263;48.160;11.752;2023-05-25T12:24:34;96247.81;;;17.76;100.00
71457;BME280;59263;48.160;11.752;2023-05-25T12:26:59;96245.78;;;17.86;100.00
71457;BME280;59263;48.160;11.752;2023-05-25T12:29:27;96269.91;;;17.96;100.00
71457;BME280;59263;48.160;11.752;2023-05-25T12:32:00;96269.66;;;18.06;100.00
71457;BME280;59263;48.160;11.752;2023-05-25T12:34:26;96230.00;;;17.94;100.00
71457;BME280;59263;48.160;11.752;2023-05-25T12:36:54;96230.38;;;17.91;100.00
71457;BME280;59263;48.160;11.752;2023-05-25T12:41:56;96202.88;;;17.49;100.00
71457;BME280;59263;48.160;11.752;2023-05-25T12:44:29;96265.94;;;18.00;100.00
71457;BME280;59263;48.160;11.752;2023-05-25T12:47:14;96199.69;;;17.62;100.00
71457;BME280;59263;48.160;11.752;2023-05-25T12:50:09;96191.66;;;17.63;100.00